Time;durP1;ratioP1;P1;durP2;ratioP2;P2;SDS_P1;SDS_P2;PMS_P1;PMS_P2;Temp;Humidity;BMP_temperature;BMP_pressure;BME280_temperature;BME280_humidity;BME280_pressure;Samples;Min_cycle;Max_cycle;Signal;HPM_P1;HPM_P2
2022/10/01 05:18:16;;;;;;;10.25;4.68;;;;;;;;;;5048362;28;20545;-63
2022/10/01 05:20:49;;;;;;;8.32;4.05;;;;;;;;;;5048773;28;20037;-64
2022/10/01 05:23:15;;;;;;;9.30;4.75;;;;;;;;;;5049536;28;20132;-63
2022/10/01 05:25:43;;;;;;;5.80;4.00;;;;;;;;;;5049644;28;20060;-63
2022/10/01 05:28:10;;;;;;;8.50;5.57;;;;;;;;;;5049316;28;20056;-63
2022/10/01 05:30:36;;;;;;;12.88;4.63;;;;;;;;;;5047407;28;20049;-64
2022/10/01 05:33:03;;;;;;;8.10;4.85;;;;;;;;;;5015433;28;20048;-63
2022/10/01 05:35:30;;;;;;;10.48;4.93;;;;;;;;;;5031439;28;20049;-63
2022/10/01 05:37:57;;;;;;;5.80;4.05;;;;;;;;;;5037567;28;20499;-62
2022/10/01 05:40:26;;;;;;;7.60;4.47;;;;;;;;;;5049276;28;20044;-63
2022/10/01 05:42:53;;;;;;;7.40;3.50;;;;;;;;;;5031044;28;20053;-62
2022/10/01 05:45:19;;;;;;;7.22;3.97;;;;;;;;;;5048144;28;20503;-62
2022/10/01 05:47:47;;;;;;;7.20;4.50;;;;;;;;;;5047367;28;20120;-63
2022/10/01 05:50:13;;;;;;;8.02;4.78;;;;;;;;;;5048900;28;20053;-63
2022/10/01 05:52:41;;;;;;;9.25;4.18;;;;;;;;;;5012383;28;20072;-63
2022/10/01 05:55:08;;;;;;;8.10;4.05;;;;;;;;;;5031121;28;20518;-63
2022/10/01 05:57:34;;;;;;;7.63;3.67;;;;;;;;;;5049150;28;20045;-62
2022/10/01 06:00:00;;;;;;;9.55;4.90;;;;;;;;;;5047453;28;20489;-62
2022/10/01 06:02:26;;;;;;;6.93;3.85;;;;;;;;;;5048666;28;20502;-63
2022/10/01 06:04:52;;;;;;;13.20;4.47;;;;;;;;;;5048593;28;20057;-62
2022/10/01 06:07:18;;;;;;;7.13;3.58;;;;;;;;;;5030416;28;20061;-63
2022/10/01 06:09:44;;;;;;;10.40;4.60;;;;;;;;;;5031190;28;20045;-63
2022/10/01 06:12:10;;;;;;;7.53;4.60;;;;;;;;;;5048340;28;20049;-63
2022/10/01 06:14:37;;;;;;;14.70;4.35;;;;;;;;;;5047552;28;20049;-63
2022/10/01 06:17:03;;;;;;;7.40;3.15;;;;;;;;;;5002091;28;20285;-62
2022/10/01 06:19:30;;;;;;;11.32;4.30;;;;;;;;;;5028738;28;20443;-63
2022/10/01 06:21:56;;;;;;;7.85;3.92;;;;;;;;;;5029111;28;20057;-63
2022/10/01 06:24:22;;;;;;;7.50;3.95;;;;;;;;;;5017658;28;20111;-63
2022/10/01 06:26:48;;;;;;;5.78;3.47;;;;;;;;;;5028720;28;20041;-63
2022/10/01 06:29:14;;;;;;;8.95;3.78;;;;;;;;;;5027463;28;20049;-63
2022/10/01 06:31:40;;;;;;;7.45;3.97;;;;;;;;;;5028720;28;20049;-62
2022/10/01 06:34:06;;;;;;;6.10;3.13;;;;;;;;;;5032373;28;20049;-63
2022/10/01 06:36:33;;;;;;;9.90;4.38;;;;;;;;;;5032977;28;20033;-63
2022/10/01 06:38:59;;;;;;;8.02;4.28;;;;;;;;;;5032646;28;20301;-64
2022/10/01 06:41:25;;;;;;;8.07;3.42;;;;;;;;;;5032328;28;20531;-64
2022/10/01 06:43:51;;;;;;;9.43;3.47;;;;;;;;;;5013532;28;20564;-63
2022/10/01 06:46:17;;;;;;;8.10;3.15;;;;;;;;;;5032222;28;20216;-63
2022/10/01 06:48:43;;;;;;;11.20;3.80;;;;;;;;;;5014749;28;20060;-63
2022/10/01 06:51:10;;;;;;;11.50;3.55;;;;;;;;;;5032600;28;20127;-63
2022/10/01 06:53:36;;;;;;;8.35;4.63;;;;;;;;;;5032352;28;20077;-64
2022/10/01 06:56:06;;;;;;;16.55;5.75;;;;;;;;;;5014420;28;20531;-64
2022/10/01 06:58:32;;;;;;;12.52;4.63;;;;;;;;;;5031449;28;20064;-63
2022/10/01 07:01:02;;;;;;;15.13;4.35;;;;;;;;;;5031355;28;20454;-64
2022/10/01 07:03:29;;;;;;;15.30;4.97;;;;;;;;;;5032064;28;20246;-63
2022/10/01 07:06:01;;;;;;;10.85;4.45;;;;;;;;;;5031262;28;20474;-64
2022/10/01 07:08:27;;;;;;;12.82;4.28;;;;;;;;;;5030469;28;20049;-64
2022/10/01 07:10:58;;;;;;;14.05;5.07;;;;;;;;;;5026165;28;20114;-63
2022/10/01 07:13:24;;;;;;;11.90;4.93;;;;;;;;;;5025376;28;20113;-63
2022/10/01 07:15:50;;;;;;;7.90;3.97;;;;;;;;;;5030651;28;20541;-64
2022/10/01 07:18:16;;;;;;;15.38;5.40;;;;;;;;;;5012640;28;20103;-64
2022/10/01 07:20:42;;;;;;;14.00;4.93;;;;;;;;;;5030570;28;20048;-63
2022/10/01 07:23:12;;;;;;;13.60;4.78;;;;;;;;;;5032125;28;20138;-64
2022/10/01 07:25:39;;;;;;;8.70;4.20;;;;;;;;;;5031523;28;20542;-64
2022/10/01 07:28:06;;;;;;;15.20;5.07;;;;;;;;;;5031554;28;20064;-64
2022/10/01 07:30:32;;;;;;;12.45;4.32;;;;;;;;;;5012029;28;20141;-64
2022/10/01 07:32:59;;;;;;;7.88;4.20;;;;;;;;;;5031614;28;20049;-62
2022/10/01 07:35:25;;;;;;;9.02;3.38;;;;;;;;;;5031626;28;20045;-63
2022/10/01 07:37:54;;;;;;;13.00;4.00;;;;;;;;;;5031577;28;20045;-63
2022/10/01 07:40:20;;;;;;;14.02;3.28;;;;;;;;;;5014022;28;20057;-63
2022/10/01 07:42:53;;;;;;;8.00;3.85;;;;;;;;;;5030826;28;20524;-63
2022/10/01 07:45:20;;;;;;;6.05;3.00;;;;;;;;;;5011468;28;20055;-63
2022/10/01 07:47:53;;;;;;;10.90;3.53;;;;;;;;;;5031117;28;20060;-64
2022/10/01 07:50:19;;;;;;;4.97;2.55;;;;;;;;;;5013666;28;20191;-63
2022/10/01 07:52:49;;;;;;;11.88;2.95;;;;;;;;;;5013447;28;20033;-63
2022/10/01 07:55:15;;;;;;;13.27;3.25;;;;;;;;;;5031056;28;20056;-63
2022/10/01 07:57:41;;;;;;;16.83;4.15;;;;;;;;;;4995440;28;20053;-62
2022/10/01 08:00:08;;;;;;;10.93;3.78;;;;;;;;;;5029808;28;20041;-64
2022/10/01 08:02:36;;;;;;;13.18;3.33;;;;;;;;;;5030944;28;20080;-63
2022/10/01 08:05:17;;;;;;;22.30;4.75;;;;;;;;;;5029950;28;20041;-63
2022/10/01 08:07:45;;;;;;;9.30;3.08;;;;;;;;;;5030997;28;20056;-63
2022/10/01 08:10:11;;;;;;;8.55;3.13;;;;;;;;;;5031041;28;20187;-63
2022/10/01 08:12:38;;;;;;;9.48;4.07;;;;;;;;;;5030444;28;20049;-63
2022/10/01 08:15:09;;;;;;;12.43;4.50;;;;;;;;;;5029309;28;20053;-63
2022/10/01 08:17:36;;;;;;;13.13;3.63;;;;;;;;;;5030555;28;20033;-63
2022/10/01 08:20:03;;;;;;;13.32;4.18;;;;;;;;;;5050475;28;20060;-63
2022/10/01 08:22:29;;;;;;;15.90;4.38;;;;;;;;;;5050731;28;20049;-63
2022/10/01 08:24:55;;;;;;;10.93;3.28;;;;;;;;;;5049915;28;20103;-63
2022/10/01 08:27:24;;;;;;;11.48;3.08;;;;;;;;;;5050374;28;20049;-63
2022/10/01 08:29:50;;;;;;;16.13;3.92;;;;;;;;;;5049093;28;20045;-63
2022/10/01 08:32:16;;;;;;;11.30;3.78;;;;;;;;;;5048495;28;20066;-63
2022/10/01 08:34:42;;;;;;;12.75;3.95;;;;;;;;;;5050240;28;20056;-63
2022/10/01 08:37:08;;;;;;;9.05;3.03;;;;;;;;;;5050401;28;20037;-63
2022/10/01 08:39:36;;;;;;;13.57;2.78;;;;;;;;;;5050236;28;20043;-62
2022/10/01 08:42:21;;;;;;;9.95;3.33;;;;;;;;;;5049801;28;20276;-62
2022/10/01 08:44:48;;;;;;;6.43;3.58;;;;;;;;;;5047687;28;20281;-63
2022/10/01 08:47:27;;;;;;;7.35;2.72;;;;;;;;;;5041881;28;20075;-63
2022/10/01 08:49:58;;;;;;;8.95;2.72;;;;;;;;;;5050100;28;20123;-63
2022/10/01 08:52:25;;;;;;;10.00;2.50;;;;;;;;;;5049877;28;20116;-63
2022/10/01 08:54:52;;;;;;;7.25;3.45;;;;;;;;;;5050500;28;20037;-63
2022/10/01 08:57:20;;;;;;;8.48;2.25;;;;;;;;;;5050719;28;20407;-63
2022/10/01 08:59:55;;;;;;;7.13;2.47;;;;;;;;;;5048560;28;20072;-63
2022/10/01 09:02:21;;;;;;;6.18;1.65;;;;;;;;;;5048081;28;20067;-63
2022/10/01 09:04:49;;;;;;;4.20;1.80;;;;;;;;;;5031719;28;20088;-63
2022/10/01 09:07:39;;;;;;;6.38;2.65;;;;;;;;;;5056695;28;20226;-63
2022/10/01 09:10:24;;;;;;;4.90;2.33;;;;;;;;;;5029697;28;20053;-63
2022/10/01 09:12:50;;;;;;;8.40;2.80;;;;;;;;;;5038844;28;20048;-63
2022/10/01 09:15:16;;;;;;;14.02;2.78;;;;;;;;;;5030379;28;20126;-63
2022/10/01 09:18:21;;;;;;;5.68;2.28;;;;;;;;;;5034964;28;20045;-63
2022/10/01 09:20:52;;;;;;;8.48;2.55;;;;;;;;;;5005817;28;20042;-63
2022/10/01 09:23:21;;;;;;;7.25;2.55;;;;;;;;;;5005555;28;20073;-63
2022/10/01 09:25:49;;;;;;;11.52;2.92;;;;;;;;;;5018339;28;20072;-63
2022/10/01 09:28:26;;;;;;;4.32;2.10;;;;;;;;;;5030359;28;20099;-63
2022/10/01 09:31:07;;;;;;;7.97;1.83;;;14.30;99.90;;;;;;5029872;28;20049;-63
2022/10/01 09:33:35;;;;;;;7.30;2.35;;;;;;;;;;5030935;28;20045;-63
2022/10/01 09:36:10;;;;;;;4.43;2.47;;;;;;;;;;5030447;28;20514;-63
2022/10/01 09:38:41;;;;;;;7.38;1.95;;;;;;;;;;5030836;28;20049;-63
2022/10/01 09:41:13;;;;;;;8.25;1.80;;;;;;;;;;5030569;28;20059;-63
2022/10/01 09:43:40;;;;;;;8.85;2.13;;;;;;;;;;5030306;28;20050;-63
2022/10/01 09:46:12;;;;;;;8.13;2.25;;;;;;;;;;5029735;28;20115;-63
2022/10/01 09:49:00;;;;;;;7.28;2.00;;;;;;;;;;5030507;28;20495;-63
2022/10/01 09:51:38;;;;;;;7.47;2.75;;;;;;;;;;5031867;28;20073;-63
2022/10/01 09:54:07;;;;;;;5.50;1.83;;;;;;;;;;5030102;28;20076;-63
2022/10/01 09:56:36;;;;;;;7.28;2.45;;;;;;;;;;5030590;28;20084;-63
2022/10/01 09:59:06;;;;;;;5.63;2.42;;;;;;;;;;5028976;28;20076;-63
2022/10/01 10:01:32;;;;;;;7.28;2.20;;;;;;;;;;5013643;28;20069;-63
2022/10/01 10:03:58;;;;;;;5.70;2.42;;;;;;;;;;5030196;28;20277;-63
2022/10/01 10:06:27;;;;;;;6.20;2.25;;;;;;;;;;5028700;28;20049;-63
2022/10/01 10:08:54;;;;;;;5.57;1.60;;;;;;;;;;5030143;28;20100;-63
2022/10/01 10:11:22;;;;;;;5.70;2.17;;;;;;;;;;5010924;28;20059;-63
2022/10/01 10:13:52;;;;;;;7.57;1.77;;;;;;;;;;5028972;28;20523;-64
2022/10/01 10:16:29;;;;;;;10.70;2.30;;;;;;;;;;5033311;28;20112;-64
2022/10/01 10:19:09;;;;;;;5.05;1.90;;;;;;;;;;5048599;28;20490;-63
2022/10/01 10:21:36;;;;;;;7.63;3.08;;;;;;;;;;5040403;28;20187;-64
2022/10/01 10:24:03;;;;;;;11.00;1.92;;;;;;;;;;5048309;28;20041;-63
2022/10/01 10:26:33;;;;;;;5.53;1.98;;;;;;;;;;5048799;28;20045;-63
2022/10/01 10:29:03;;;;;;;7.07;1.98;;;;;;;;;;5029209;28;20122;-63
2022/10/01 10:31:34;;;;;;;8.75;1.83;;;;;;;;;;5048419;28;20045;-63
2022/10/01 10:34:07;;;;;;;7.78;1.80;;;;;;;;;;5048448;28;20109;-63
2022/10/01 10:36:34;;;;;;;4.75;1.60;;;;;;;;;;5048577;28;20045;-63
2022/10/01 10:39:01;;;;;;;5.28;1.60;;;;;;;;;;5048368;28;20045;-63
2022/10/01 10:41:28;;;;;;;4.70;2.42;;;;;;;;;;5030199;28;20067;-63
2022/10/01 10:44:00;;;;;;;10.57;1.95;;;;;;;;;;5047349;28;20433;-63
2022/10/01 10:46:30;;;;;;;10.48;2.15;;;;;;;;;;5048112;28;20033;-63
2022/10/01 10:49:08;;;;;;;6.05;2.60;;;;;;;;;;5048160;28;20049;-63
2022/10/01 10:51:52;;;;;;;10.65;3.60;;;;;;;;;;5040232;28;20044;-63
2022/10/01 10:54:23;;;;;;;8.32;2.70;;;;;;;;;;5047885;28;20136;-63
2022/10/01 10:56:58;;;;;;;7.07;2.67;;;;;;;;;;5035771;28;20051;-64
2022/10/01 10:59:25;;;;;;;10.80;3.28;;;;;;;;;;5046786;28;20052;-64
2022/10/01 11:01:51;;;;;;;12.27;4.13;;;;;;;;;;5047952;28;20052;-64
2022/10/01 11:04:27;;;;;;;15.32;4.32;;;;;;;;;;5048111;28;20094;-64
2022/10/01 11:06:54;;;;;;;9.10;3.58;;;;;;;;;;5048112;28;20041;-64
2022/10/01 11:09:21;;;;;;;19.77;3.38;;;;;;;;;;5030274;28;20052;-64
2022/10/01 11:11:54;;;;;;;11.73;3.70;;;;;;;;;;5048032;28;20049;-64
2022/10/01 11:14:33;;;;;;;15.07;3.35;;;;;;;;;;5046421;28;20047;-64
2022/10/01 11:16:59;;;;;;;20.33;3.60;;;;;;;;;;5039139;28;20058;-64
2022/10/01 11:19:28;;;;;;;8.30;2.70;;;;;;;;;;5026921;28;20045;-65
2022/10/01 11:22:04;;;;;;;12.63;3.17;;;;;;;;;;5034434;28;20037;-64
2022/10/01 11:24:36;;;;;;;10.00;2.97;;;;;;;;;;5020632;28;20114;-65
2022/10/01 11:27:17;;;;;;;13.50;3.35;;;;;;;;;;5014492;28;20049;-65
2022/10/01 11:29:49;;;;;;;5.68;2.70;;;;;;;;;;5031933;28;20054;-65
2022/10/01 11:32:18;;;;;;;13.43;3.42;;;;;;;;;;5032095;28;20674;-64
2022/10/01 11:34:49;;;;;;;8.18;2.90;;;;;;;;;;5032290;28;20527;-65
2022/10/01 11:37:34;;;;;;;8.35;2.80;;;;;;;;;;5031643;28;20126;-65
2022/10/01 11:40:04;;;;;;;5.68;1.95;;;;;;;;;;5032260;28;20045;-65
2022/10/01 11:42:34;;;;;;;7.93;3.20;;;;;;;;;;5014273;28;20111;-65
2022/10/01 11:45:20;;;;;;;11.35;2.92;;;;;;;;;;5030594;28;20108;-65
2022/10/01 11:47:59;;;;;;;8.63;2.83;;;;;;;;;;5031262;28;20056;-65
2022/10/01 11:50:28;;;;;;;6.25;2.08;;;;;;;;;;5026997;28;20608;-65
2022/10/01 11:52:57;;;;;;;5.00;2.92;;;;;;;;;;5031964;28;20543;-65
2022/10/01 12:01:08;;;;;;;12.27;3.00;;;;;;;;;;5031667;28;20038;-65
2022/10/01 12:03:41;;;;;;;11.45;3.42;;;;;;;;;;5032096;28;20049;-65
2022/10/01 12:06:13;;;;;;;9.18;2.50;;;15.30;99.90;;;;;;5030411;28;20470;-65
2022/10/01 12:08:47;;;;;;;9.52;2.10;;;15.70;99.90;;;;;;5031000;28;20546;-65
2022/10/01 12:11:22;;;;;;;8.77;2.08;;;15.80;99.90;;;;;;5032842;28;20053;-65
2022/10/01 12:13:57;;;;;;;7.07;2.60;;;15.80;99.90;;;;;;5029906;28;20041;-65
2022/10/01 12:16:49;;;;;;;8.90;2.08;;;15.90;99.90;;;;;;5035619;28;20148;-65
2022/10/01 12:19:40;;;;;;;9.43;2.72;;;15.90;99.90;;;;;;5049652;28;20045;-65
2022/10/01 12:22:24;;;;;;;9.63;2.78;;;;;;;;;;5051088;28;20068;-65
2022/10/01 12:24:51;;;;;;;9.68;2.30;;;;;;;;;;5049729;28;20041;-65
2022/10/01 12:27:18;;;;;;;8.48;2.53;;;;;;;;;;5049766;28;20060;-65
2022/10/01 12:30:03;;;;;;;7.10;2.30;;;;;;;;;;5047691;28;20041;-65
2022/10/01 12:32:41;;;;;;;8.95;2.53;;;;;;;;;;5048754;28;20425;-65
2022/10/01 12:35:08;;;;;;;8.00;2.90;;;;;;;;;;5039851;28;20132;-65
2022/10/01 12:37:34;;;;;;;6.57;2.55;;;;;;;;;;5049029;28;20095;-65
2022/10/01 12:40:15;;;;;;;9.63;3.55;;;;;;;;;;5049466;28;20056;-65
2022/10/01 12:42:41;;;;;;;12.93;3.97;;;;;;;;;;5049173;28;20040;-65
2022/10/01 12:45:15;;;;;;;11.52;3.10;;;;;;;;;;5048030;28;20053;-65
2022/10/01 12:47:47;;;;;;;14.57;3.70;;;;;;;;;;5048540;28;20044;-65
2022/10/01 12:50:21;;;;;;;6.43;2.93;;;;;;;;;;5049428;28;20508;-65
2022/10/01 12:53:03;;;;;;;6.63;2.58;;;;;;;;;;5048674;28;20320;-65
2022/10/01 12:55:33;;;;;;;5.85;2.33;;;;;;;;;;5049014;28;20130;-65
2022/10/01 12:58:02;;;;;;;6.45;2.03;;;;;;;;;;5049791;28;20542;-65
2022/10/01 13:00:32;;;;;;;7.45;2.95;;;;;;;;;;5046538;28;20052;-65
2022/10/01 13:03:14;;;;;;;5.60;2.30;;;;;;;;;;5049481;28;20087;-65
2022/10/01 13:05:46;;;;;;;7.18;3.13;;;;;;;;;;5053538;28;20044;-65
2022/10/01 13:08:15;;;;;;;10.47;3.60;;;;;;;;;;5050652;28;20128;-65
2022/10/01 13:11:02;;;;;;;8.95;3.10;;;;;;;;;;5048729;28;20501;-65
2022/10/01 13:13:32;;;;;;;14.40;4.15;;;;;;;;;;5047336;28;20128;-65
2022/10/01 13:16:02;;;;;;;22.77;4.28;;;;;;;;;;5045417;28;20262;-65
2022/10/01 13:18:38;;;;;;;13.35;3.95;;;;;;;;;;5030194;28;20049;-65
2022/10/01 13:21:20;;;;;;;10.90;3.35;;;;;;;;;;5021865;28;20084;-65
2022/10/01 13:23:53;;;;;;;8.10;4.20;;;;;;;;;;5025710;28;20053;-65
2022/10/01 13:26:25;;;;;;;12.90;3.38;;;;;;;;;;5018834;28;20272;-65
2022/10/01 13:29:00;;;;;;;17.60;4.40;;;;;;;;;;5021313;28;20050;-65
2022/10/01 13:31:38;;;;;;;9.20;3.08;;;;;;;;;;5029189;28;20065;-65
2022/10/01 13:34:23;;;;;;;11.70;2.83;;;;;;;;;;5029486;28;20153;-66
2022/10/01 13:36:49;;;;;;;11.20;3.20;;;;;;;;;;5029987;28;20048;-65
2022/10/01 13:39:24;;;;;;;6.38;2.65;;;;;;;;;;5029978;28;20073;-65
2022/10/01 13:41:57;;;;;;;6.40;3.10;;;;;;;;;;5028303;28;20056;-65
2022/10/01 13:44:34;;;;;;;16.27;4.30;;;;;;;;;;5028088;28;20077;-66
2022/10/01 13:47:02;;;;;;;12.30;3.55;;;;;;;;;;5006473;28;20057;-65
2022/10/01 13:49:30;;;;;;;9.70;3.35;;;;;;;;;;5029715;28;20578;-66
2022/10/01 13:51:56;;;;;;;10.35;4.18;;;;;;;;;;5029187;28;20515;-66
2022/10/01 13:54:27;;;;;;;13.07;3.95;;;;;;;;;;5030026;28;20046;-65
2022/10/01 13:56:53;;;;;;;9.60;3.80;;;;;;;;;;5029396;28;20057;-65
2022/10/01 13:59:28;;;;;;;11.88;4.30;;;;;;;;;;5029749;28;20049;-65
2022/10/01 14:01:54;;;;;;;15.23;4.68;;;;;;;;;;5015938;28;20080;-65
2022/10/01 14:04:23;;;;;;;10.82;3.90;;;;;;;;;;5028978;28;20077;-65
2022/10/01 14:06:52;;;;;;;12.07;4.00;;;;;;;;;;5027577;28;20406;-65
2022/10/01 14:09:23;;;;;;;7.50;3.47;;;;;;;;;;5031655;28;20498;-66
2022/10/01 14:17:54;;;;;;;9.30;3.13;;;;;;;;;;5034498;28;20045;-65
2022/10/01 14:20:23;;;;;;;6.85;3.00;;;;;;;;;;5048390;28;20049;-66
2022/10/01 14:23:08;;;;;;;11.48;3.47;;;;;;;;;;5048586;28;20048;-66
2022/10/01 14:25:37;;;;;;;9.93;3.30;;;;;;;;;;5048004;28;20104;-64
2022/10/01 14:28:03;;;;;;;19.73;3.95;;;;;;;;;;5049036;28;20063;-65
2022/10/01 14:30:49;;;;;;;10.57;3.30;;;;;;;;;;5047192;28;20128;-65
2022/10/01 14:33:35;;;;;;;6.80;2.72;;;;;;;;;;5037457;28;20582;-65
2022/10/01 14:36:01;;;;;;;9.50;2.92;;;;;;;;;;5048283;28;20095;-65
2022/10/01 14:38:27;;;;;;;11.73;4.55;;;;;;;;;;5048731;28;20490;-66
2022/10/01 14:40:54;;;;;;;12.27;3.95;;;;;;;;;;5048021;28;20041;-65
2022/10/01 14:43:21;;;;;;;11.77;3.35;;;;;;;;;;5046762;28;20045;-65
2022/10/01 14:45:52;;;;;;;11.40;3.20;;;;;;;;;;5047061;28;20249;-65
2022/10/01 14:48:18;;;;;;;15.50;2.85;;;;;;;;;;5030606;28;20091;-65
2022/10/01 14:50:46;;;;;;;8.35;2.97;;;;;;;;;;5030607;28;20128;-65
2022/10/01 14:53:16;;;;;;;12.52;3.28;;;;;;;;;;5049623;28;20053;-64
2022/10/01 14:55:42;;;;;;;9.95;3.67;;;;;;;;;;5052386;28;20045;-65
2022/10/01 14:58:25;;;;;;;13.52;3.70;;;16.00;99.90;;;;;;5052299;28;20037;-65
2022/10/01 15:00:51;;;;;;;;;;;;;;;;;;5052376;28;20041;-65
2022/10/01 15:03:17;;;;;;;10.65;4.35;;;;;;;;;;5044925;28;20293;-65
2022/10/01 15:05:44;;;;;;;13.70;3.40;;;;;;;;;;5038994;28;20127;-65
2022/10/01 15:08:12;;;;;;;12.15;3.45;;;;;;;;;;5052982;28;20287;-65
2022/10/01 15:10:40;;;;;;;12.63;3.17;;;;;;;;;;5051214;28;20131;-65
2022/10/01 15:13:06;;;;;;;13.65;3.40;;;;;;;;;;5052175;28;20094;-65
2022/10/01 15:15:34;;;;;;;11.52;3.55;;;;;;;;;;5050204;28;20096;-65
2022/10/01 15:18:03;;;;;;;12.55;4.93;;;;;;;;;;5034064;28;20061;-65
2022/10/01 15:20:29;;;;;;;10.27;4.28;;;;;;;;;;5051808;28;20450;-65
2022/10/01 15:22:55;;;;;;;11.02;3.33;;;;;;;;;;5052150;28;20510;-64
2022/10/01 15:25:23;;;;;;;11.07;4.57;;;;;;;;;;5033646;28;20049;-64
2022/10/01 15:27:49;;;;;;;14.00;3.58;;;;;;;;;;5050368;28;20051;-65
2022/10/01 15:30:17;;;;;;;13.02;3.95;;;;;;;;;;5050551;28;20045;-65
2022/10/01 15:32:44;;;;;;;9.57;3.78;;;;;;;;;;5051154;28;20110;-64
2022/10/01 15:35:13;;;;;;;12.23;4.10;;;16.30;99.90;;;;;;5033208;28;20056;-64
2022/10/01 15:37:39;;;;;;;9.88;3.85;;;;;;;;;;5050886;28;20499;-65
2022/10/01 15:40:08;;;;;;;11.18;3.47;;;;;;;;;;5051109;28;20049;-64
2022/10/01 15:42:35;;;;;;;11.70;4.22;;;;;;;;;;5050817;28;20391;-64
2022/10/01 15:45:07;;;;;;;16.42;3.85;;;;;;;;;;5047031;28;20489;-64
2022/10/01 15:47:34;;;;;;;15.52;4.00;;;;;;;;;;5050089;28;20044;-64
2022/10/01 15:50:09;;;;;;;9.73;3.50;;;;;;;;;;5046401;28;20049;-64
2022/10/01 15:55:26;;;;;;;10.35;3.20;;;;;;;;;;5050450;28;20128;-65
2022/10/01 15:57:57;;;;;;;8.32;3.28;;;;;;;;;;5032617;28;20049;-64
2022/10/01 16:00:28;;;;;;;13.85;3.72;;;;;;;;;;5031217;28;20056;-64
2022/10/01 16:02:55;;;;;;;13.32;3.03;;;;;;;;;;5050689;28;20376;-65
2022/10/01 16:05:24;;;;;;;13.85;3.63;;;;;;;;;;5049075;28;20057;-65
2022/10/01 16:07:54;;;;;;;12.68;3.97;;;;;;;;;;5049568;28;20419;-64
2022/10/01 16:10:26;;;;;;;10.80;3.17;;;;;;;;;;5050426;28;20060;-66
2022/10/01 16:12:52;;;;;;;11.17;4.23;;;;;;;;;;5050837;28;20049;-65
2022/10/01 16:15:25;;;;;;;10.90;3.63;;;;;;;;;;5049167;28;20753;-64
2022/10/01 16:17:58;;;;;;;8.73;3.05;;;;;;;;;;5048634;28;20402;-65
2022/10/01 16:20:35;;;;;;;11.65;4.18;;;;;;;;;;5050847;28;20124;-65
2022/10/01 16:23:20;;;;;;;16.08;4.25;;;;;;;;;;5051027;28;20048;-65
2022/10/01 16:25:46;;;;;;;7.38;3.35;;;;;;;;;;5050385;28;20076;-65
2022/10/01 16:28:23;;;;;;;9.40;3.50;;;;;;;;;;5033132;28;20054;-65
2022/10/01 16:30:50;;;;;;;22.73;4.38;;;;;;;;;;5049857;28;20055;-65
2022/10/01 16:33:16;;;;;;;9.93;3.50;;;;;;;;;;5050561;28;20402;-65
2022/10/01 16:35:44;;;;;;;11.57;4.18;;;;;;;;;;5049001;28;20045;-65
2022/10/01 16:38:11;;;;;;;18.73;4.22;;;;;;;;;;5045576;28;20052;-65
2022/10/01 16:40:39;;;;;;;12.02;3.97;;;;;;;;;;5032043;28;20061;-65
2022/10/01 16:43:08;;;;;;;15.27;3.60;;;;;;;;;;5046692;28;20055;-65
2022/10/01 16:45:36;;;;;;;15.82;4.15;;;;;;;;;;5048514;28;20048;-65
2022/10/01 16:48:09;;;;;;;8.27;3.65;;;;;;;;;;5032214;28;20053;-65
2022/10/01 16:50:35;;;;;;;8.65;3.72;;;;;;;;;;5047486;28;20056;-65
2022/10/01 16:53:03;;;;;;;10.90;3.40;;;;;;;;;;5050017;28;20502;-65
2022/10/01 16:55:35;;;;;;;10.88;3.30;;;;;;;;;;5049961;28;20175;-65
2022/10/01 16:58:02;;;;;;;7.22;2.65;;;;;;;;;;5031979;28;20045;-66
2022/10/01 17:00:29;;;;;;;8.25;3.03;;;;;;;;;;5048668;28;20060;-65
2022/10/01 17:02:55;;;;;;;9.73;2.67;;;;;;;;;;5031808;28;20422;-65
2022/10/01 17:05:24;;;;;;;11.35;2.70;;;;;;;;;;5051369;28;20525;-65
2022/10/01 17:07:50;;;;;;;11.23;2.78;;;;;;;;;;5035700;28;20052;-65
2022/10/01 17:10:18;;;;;;;9.13;2.58;;;;;;;;;;5031370;28;20044;-65
2022/10/01 17:12:46;;;;;;;5.03;2.53;;;;;;;;;;5049414;28;20439;-65
2022/10/01 17:15:14;;;;;;;9.07;3.15;;;;;;;;;;5030780;28;20048;-65
2022/10/01 17:17:41;;;;;;;13.00;3.03;;;;;;;;;;5031183;28;20461;-65
2022/10/01 17:20:07;;;;;;;7.55;3.50;;;;;;;;;;5049802;28;20127;-65
2022/10/01 17:22:33;;;;;;;8.20;3.50;;;;;;;;;;5031980;28;20048;-65
2022/10/01 17:24:59;;;;;;;8.18;3.50;;;;;;;;;;5022192;28;20100;-65
2022/10/01 17:27:25;;;;;;;13.77;3.92;;;15.90;99.90;;;;;;5028649;28;20099;-65
2022/10/01 17:29:52;;;;;;;8.02;3.28;;;;;;;;;;5048097;28;20055;-65
2022/10/01 17:32:18;;;;;;;14.77;3.72;;;;;;;;;;5030850;28;20060;-65
2022/10/01 17:34:48;;;;;;;10.45;3.15;;;;;;;;;;5049452;28;20288;-65
2022/10/01 17:37:14;;;;;;;8.00;3.00;;;;;;;;;;5049423;28;20045;-65
2022/10/01 17:39:41;;;;;;;19.38;3.65;;;;;;;;;;5048992;28;20139;-65
2022/10/01 17:42:09;;;;;;;10.43;3.40;;;;;;;;;;5049177;28;20056;-65
2022/10/01 17:44:35;;;;;;;11.70;3.03;;;;;;;;;;5047666;28;20060;-65
2022/10/01 17:47:01;;;;;;;8.27;2.80;;;;;;;;;;5027250;28;20063;-65
2022/10/01 17:49:27;;;;;;;13.35;3.40;;;;;;;;;;5031327;28;20613;-66
2022/10/01 17:51:53;;;;;;;10.02;3.70;;;;;;;;;;5049290;28;20094;-65
2022/10/01 17:54:20;;;;;;;11.18;3.72;;;;;;;;;;5049391;28;20128;-65
2022/10/01 17:56:47;;;;;;;12.07;2.92;;;;;;;;;;5049555;28;20037;-65
2022/10/01 17:59:13;;;;;;;8.18;2.70;;;;;;;;;;5029681;28;20080;-65
2022/10/01 18:01:40;;;;;;;11.45;3.03;;;14.10;99.90;;;;;;5048735;28;20084;-65
2022/10/01 18:04:06;;;;;;;9.50;3.20;;;;;;;;;;5048779;28;20057;-65
2022/10/01 18:06:32;;;;;;;13.13;3.38;;;;;;;;;;5060698;28;20076;-65
2022/10/01 18:08:58;;;;;;;8.80;2.95;;;;;;;;;;5048976;28;20049;-65
2022/10/01 18:11:26;;;;;;;12.57;2.80;;;;;;;;;;5027686;28;20148;-65
2022/10/01 18:13:52;;;;;;;12.10;2.70;;;;;;;;;;5045077;28;20049;-65
2022/10/01 18:16:18;;;;;;;13.02;3.13;;;;;;;;;;5048266;28;20057;-66
2022/10/01 18:18:44;;;;;;;14.20;3.90;;;;;;;;;;5048695;28;20049;-65
2022/10/01 18:21:12;;;;;;;12.50;3.03;;;;;;;;;;5049211;28;20053;-65
2022/10/01 18:23:38;;;;;;;8.32;2.85;;;;;;;;;;5048897;28;20068;-65
2022/10/01 18:26:05;;;;;;;13.25;3.75;;;;;;;;;;5048773;28;20552;-65
2022/10/01 18:28:32;;;;;;;11.15;3.03;;;;;;;;;;5049437;28;20041;-65
2022/10/01 18:31:10;;;;;;;9.38;3.78;;;;;;;;;;5052111;28;20052;-65
2022/10/01 18:33:48;;;;;;;13.75;3.70;;;;;;;;;;5052676;28;20056;-65
2022/10/01 18:36:22;;;;;;;7.60;2.63;;;;;;;;;;5052868;28;20051;-66
2022/10/01 18:38:50;;;;;;;11.10;3.92;;;;;;;;;;5051815;28;20502;-65
2022/10/01 18:41:20;;;;;;;14.57;3.83;;;;;;;;;;5034404;28;20506;-65
2022/10/01 18:43:46;;;;;;;9.60;3.58;;;;;;;;;;5051485;28;20048;-65
2022/10/01 18:46:18;;;;;;;9.23;3.17;;;;;;;;;;5017829;28;20047;-65
2022/10/01 18:48:46;;;;;;;10.07;2.97;;;;;;;;;;5052727;28;20048;-65
2022/10/01 18:51:18;;;;;;;11.68;2.92;;;;;;;;;;5052158;28;20745;-66
2022/10/01 18:54:10;;;;;;;11.82;4.53;;;;;;;;;;5052030;28;20049;-65
2022/10/01 18:56:40;;;;;;;8.45;2.55;;;;;;;;;;5014611;28;20045;-65
2022/10/01 18:59:16;;;;;;;12.88;3.90;;;;;;;;;;5043933;28;20474;-65
2022/10/01 19:01:54;;;;;;;10.35;3.55;;;;;;;;;;5046892;28;20041;-65
2022/10/01 19:04:28;;;;;;;14.55;3.95;;;;;;;;;;5050868;28;20041;-65
2022/10/01 19:07:07;;;;;;;7.13;3.08;;;;;;;;;;5036535;28;20057;-65
2022/10/01 19:09:33;;;;;;;11.48;2.83;;;;;;;;;;5034027;28;20056;-65
2022/10/01 19:11:59;;;;;;;7.20;2.95;;;;;;;;;;5051571;28;20049;-65
2022/10/01 19:14:40;;;;;;;8.25;2.50;;;;;;;;;;5050551;28;20040;-65
2022/10/01 19:17:42;;;;;;;8.20;3.15;;;;;;;;;;5051261;28;20091;-65
2022/10/01 19:20:14;;;;;;;10.57;2.95;;;;;;;;;;4970340;28;20042;-66
2022/10/01 19:22:52;;;;;;;10.68;3.35;;;;;;;;;;5031805;28;20326;-65
2022/10/01 19:25:21;;;;;;;9.00;3.60;;;;;;;;;;5050703;28;20045;-65
2022/10/01 19:27:50;;;;;;;9.63;3.42;;;;;;;;;;5051008;28;20501;-65
2022/10/01 19:30:18;;;;;;;8.13;3.35;;;;;;;;;;5050200;28;20044;-65
2022/10/01 19:33:00;;;;;;;10.60;3.58;;;;;;;;;;5033552;28;20634;-66
2022/10/01 19:35:27;;;;;;;11.98;3.55;;;;;;;;;;5051352;28;20319;-66
2022/10/01 19:37:53;;;;;;;12.40;4.03;;;;;;;;;;5051848;28;20075;-66
2022/10/01 19:40:25;;;;;;;12.77;3.97;;;;;;;;;;5050344;28;20072;-66
2022/10/01 19:42:59;;;;;;;8.95;3.85;;;;;;;;;;5049779;28;20462;-66
2022/10/01 19:45:28;;;;;;;11.80;4.28;;;;;;;;;;5046777;28;20091;-66
2022/10/01 19:48:02;;;;;;;12.32;3.78;;;;;;;;;;5049216;28;20099;-66
2022/10/01 19:50:31;;;;;;;14.07;4.05;;;;;;;;;;5051151;28;20048;-65
2022/10/01 19:52:58;;;;;;;9.77;3.33;;;;;;;;;;5051223;28;20460;-66
2022/10/01 19:55:25;;;;;;;9.73;3.42;;;;;;;;;;5033282;28;20057;-65
2022/10/01 19:57:51;;;;;;;14.68;4.30;;;;;;;;;;5051196;28;20049;-65
2022/10/01 20:00:21;;;;;;;10.95;3.97;;;;;;;;;;5049803;28;20083;-65
2022/10/01 20:02:50;;;;;;;15.50;3.83;;;;;;;;;;5040459;28;20052;-65
2022/10/01 20:05:37;;;;;;;13.25;4.30;;;;;;;;;;5034499;28;20517;-66
2022/10/01 20:08:03;;;;;;;14.60;4.00;;;;;;;;;;5058487;28;20087;-65
2022/10/01 20:10:29;;;;;;;10.63;2.90;;;;;;;;;;5050705;28;20037;-66
2022/10/01 20:13:14;;;;;;;8.15;3.45;;;;;;;;;;5032881;28;20122;-65
2022/10/01 20:15:55;;;;;;;11.20;3.30;;;;;;;;;;5049104;28;20110;-66
2022/10/01 20:18:22;;;;;;;13.80;4.13;;;;;;;;;;5050777;28;20130;-66
2022/10/01 20:20:48;;;;;;;9.48;3.67;;;;;;;;;;5051019;28;20185;-65
2022/10/01 20:23:20;;;;;;;14.82;3.92;;;;;;;;;;5050881;28;20056;-65